sensor_id;sensor_type;location;lat;lon;timestamp;temperature;humidity
71649;SHT31;70112;45.624;11.760;2024-03-23T00:55:55;12.93;66.44
71649;SHT31;70112;45.624;11.760;2024-03-23T00:58:21;12.89;66.47
71649;SHT31;70112;45.624;11.760;2024-03-23T01:00:46;12.85;66.58
71649;SHT31;70112;45.624;11.760;2024-03-23T01:03:12;12.82;66.69
71649;SHT31;70112;45.624;11.760;2024-03-23T01:05:37;12.80;66.72
71649;SHT31;70112;45.624;11.760;2024-03-23T01:08:03;12.79;66.80
71649;SHT31;70112;45.624;11.760;2024-03-23T01:10:29;12.81;66.86
71649;SHT31;70112;45.624;11.760;2024-03-23T01:12:54;12.82;66.94
71649;SHT31;70112;45.624;11.760;2024-03-23T01:15:20;12.86;66.90
71649;SHT31;70112;45.624;11.760;2024-03-23T01:17:46;12.88;66.89
71649;SHT31;70112;45.624;11.760;2024-03-23T01:20:12;12.92;66.80
71649;SHT31;70112;45.624;11.760;2024-03-23T01:22:40;12.92;66.80
71649;SHT31;70112;45.624;11.760;2024-03-23T01:25:06;12.86;66.36
71649;SHT31;70112;45.624;11.760;2024-03-23T01:27:32;12.81;66.51
71649;SHT31;70112;45.624;11.760;2024-03-23T01:29:59;12.75;66.59
71649;SHT31;70112;45.624;11.760;2024-03-23T01:32:24;12.73;66.62
71649;SHT31;70112;45.624;11.760;2024-03-23T01:34:50;12.71;66.76
71649;SHT31;70112;45.624;11.760;2024-03-23T01:37:15;12.69;66.80
71649;SHT31;70112;45.624;11.760;2024-03-23T01:39:41;12.67;66.81
71649;SHT31;70112;45.624;11.760;2024-03-23T01:42:07;12.65;66.83
71649;SHT31;70112;45.624;11.760;2024-03-23T01:44:32;12.62;66.79
71649;SHT31;70112;45.624;11.760;2024-03-23T01:46:58;12.62;66.85
71649;SHT31;70112;45.624;11.760;2024-03-23T01:49:23;12.61;66.97
71649;SHT31;70112;45.624;11.760;2024-03-23T01:51:49;12.61;67.09
71649;SHT31;70112;45.624;11.760;2024-03-23T01:54:15;12.60;67.13
71649;SHT31;70112;45.624;11.760;2024-03-23T01:56:41;12.55;67.01
71649;SHT31;70112;45.624;11.760;2024-03-23T01:59:06;12.52;67.09
71649;SHT31;70112;45.624;11.760;2024-03-23T02:01:32;12.51;67.16
71649;SHT31;70112;45.624;11.760;2024-03-23T02:04:03;12.49;67.20
71649;SHT31;70112;45.624;11.760;2024-03-23T02:06:29;12.44;67.28
71649;SHT31;70112;45.624;11.760;2024-03-23T02:08:55;12.40;67.41
71649;SHT31;70112;45.624;11.760;2024-03-23T02:11:21;12.36;67.56
71649;SHT31;70112;45.624;11.760;2024-03-23T02:13:47;12.30;67.59
71649;SHT31;70112;45.624;11.760;2024-03-23T02:16:12;12.22;67.73
71649;SHT31;70112;45.624;11.760;2024-03-23T02:18:38;12.21;67.86
71649;SHT31;70112;45.624;11.760;2024-03-23T02:21:04;12.23;67.99
71649;SHT31;70112;45.624;11.760;2024-03-23T02:23:30;12.23;67.81
71649;SHT31;70112;45.624;11.760;2024-03-23T02:25:55;12.20;67.61
71649;SHT31;70112;45.624;11.760;2024-03-23T02:28:21;12.15;67.94
71649;SHT31;70112;45.624;11.760;2024-03-23T02:30:50;12.13;67.97
71649;SHT31;70112;45.624;11.760;2024-03-23T02:33:15;12.04;67.82
71649;SHT31;70112;45.624;11.760;2024-03-23T02:35:41;12.00;68.03
71649;SHT31;70112;45.624;11.760;2024-03-23T02:38:08;11.99;68.00
71649;SHT31;70112;45.624;11.760;2024-03-23T02:40:34;11.96;67.88
71649;SHT31;70112;45.624;11.760;2024-03-23T05:41:50;11.61;68.66
71649;SHT31;70112;45.624;11.760;2024-03-23T05:44:16;11.64;68.68
71649;SHT31;70112;45.624;11.760;2024-03-23T05:46:42;11.63;68.42
71649;SHT31;70112;45.624;11.760;2024-03-23T05:49:13;11.59;68.42
71649;SHT31;70112;45.624;11.760;2024-03-23T05:51:39;11.59;68.47
71649;SHT31;70112;45.624;11.760;2024-03-23T05:54:10;11.62;68.52
71649;SHT31;70112;45.624;11.760;2024-03-23T05:56:35;11.62;68.60
71649;SHT31;70112;45.624;11.760;2024-03-23T05:59:01;11.63;68.66
71649;SHT31;70112;45.624;11.760;2024-03-23T06:01:28;11.66;68.69
71649;SHT31;70112;45.624;11.760;2024-03-23T06:03:54;11.70;68.73
71649;SHT31;70112;45.624;11.760;2024-03-23T06:06:19;11.76;68.83
71649;SHT31;70112;45.624;11.760;2024-03-23T06:08:45;11.81;68.93
71649;SHT31;70112;45.624;11.760;2024-03-23T06:11:10;11.88;69.03
71649;SHT31;70112;45.624;11.760;2024-03-23T06:13:36;11.96;69.07
71649;SHT31;70112;45.624;11.760;2024-03-23T06:16:01;12.05;69.22
71649;SHT31;70112;45.624;11.760;2024-03-23T06:18:27;12.15;69.51
71649;SHT31;70112;45.624;11.760;2024-03-23T06:20:53;12.26;69.68
71649;SHT31;70112;45.624;11.760;2024-03-23T06:23:18;12.39;69.70
71649;SHT31;70112;45.624;11.760;2024-03-23T06:25:45;12.52;69.62
71649;SHT31;70112;45.624;11.760;2024-03-23T06:28:11;12.67;69.61
71649;SHT31;70112;45.624;11.760;2024-03-23T06:30:37;12.80;69.50
71649;SHT31;70112;45.624;11.760;2024-03-23T06:33:03;12.95;69.38
71649;SHT31;70112;45.624;11.760;2024-03-23T06:35:30;13.07;69.27
71649;SHT31;70112;45.624;11.760;2024-03-23T06:37:56;13.19;69.12
71649;SHT31;70112;45.624;11.760;2024-03-23T06:40:23;13.30;68.98
71649;SHT31;70112;45.624;11.760;2024-03-23T06:42:49;13.37;68.84
71649;SHT31;70112;45.624;11.760;2024-03-23T06:45:14;13.44;68.76
71649;SHT31;70112;45.624;11.760;2024-03-23T06:47:40;13.48;68.58
71649;SHT31;70112;45.624;11.760;2024-03-23T06:50:06;13.54;68.48
71649;SHT31;70112;45.624;11.760;2024-03-23T06:52:32;13.58;68.48
71649;SHT31;70112;45.624;11.760;2024-03-23T08:30:31;28.58;43.08
71649;SHT31;70112;45.624;11.760;2024-03-23T08:32:57;28.72;42.00
71649;SHT31;70112;45.624;11.760;2024-03-23T08:35:22;29.02;41.42
71649;SHT31;70112;45.624;11.760;2024-03-23T08:37:47;29.31;40.58
71649;SHT31;70112;45.624;11.760;2024-03-23T08:40:13;29.54;40.16
71649;SHT31;70112;45.624;11.760;2024-03-23T08:42:38;29.87;39.83
71649;SHT31;70112;45.624;11.760;2024-03-23T08:45:04;30.27;39.08
71649;SHT31;70112;45.624;11.760;2024-03-23T08:47:33;30.64;38.42
71649;SHT31;70112;45.624;11.760;2024-03-23T08:50:00;30.97;38.06
71649;SHT31;70112;45.624;11.760;2024-03-23T08:52:25;31.28;37.43
71649;SHT31;70112;45.624;11.760;2024-03-23T08:54:53;31.47;36.82
71649;SHT31;70112;45.624;11.760;2024-03-23T08:57:19;31.42;36.21
71649;SHT31;70112;45.624;11.760;2024-03-23T08:59:44;31.35;36.01
71649;SHT31;70112;45.624;11.760;2024-03-23T09:02:09;31.29;35.95
71649;SHT31;70112;45.624;11.760;2024-03-23T09:04:35;31.61;35.60
71649;SHT31;70112;45.624;11.760;2024-03-23T09:07:01;32.00;35.44
71649;SHT31;70112;45.624;11.760;2024-03-23T09:09:26;32.22;35.31
71649;SHT31;70112;45.624;11.760;2024-03-23T09:11:52;32.42;34.70
71649;SHT31;70112;45.624;11.760;2024-03-23T09:14:17;32.55;34.69
71649;SHT31;70112;45.624;11.760;2024-03-23T09:16:44;32.94;34.24
71649;SHT31;70112;45.624;11.760;2024-03-23T09:19:09;33.39;33.39
71649;SHT31;70112;45.624;11.760;2024-03-23T09:21:35;33.66;33.00
71649;SHT31;70112;45.624;11.760;2024-03-23T09:24:00;33.87;32.66
71649;SHT31;70112;45.624;11.760;2024-03-23T09:26:26;33.55;32.04
71649;SHT31;70112;45.624;11.760;2024-03-23T09:28:51;33.56;32.37
71649;SHT31;70112;45.624;11.760;2024-03-23T09:31:17;33.90;31.90
71649;SHT31;70112;45.624;11.760;2024-03-23T09:33:43;34.12;31.62
71649;SHT31;70112;45.624;11.760;2024-03-23T09:36:08;34.25;31.51
71649;SHT31;70112;45.624;11.760;2024-03-23T09:38:34;34.61;31.32
71649;SHT31;70112;45.624;11.760;2024-03-23T09:41:00;34.95;30.77
71649;SHT31;70112;45.624;11.760;2024-03-23T09:43:25;35.17;30.49
71649;SHT31;70112;45.624;11.760;2024-03-23T09:45:51;35.27;29.90
71649;SHT31;70112;45.624;11.760;2024-03-23T09:48:18;34.82;30.08
71649;SHT31;70112;45.624;11.760;2024-03-23T09:50:44;34.42;29.97
71649;SHT31;70112;45.624;11.760;2024-03-23T09:53:11;34.42;29.84
71649;SHT31;70112;45.624;11.760;2024-03-23T09:55:39;34.43;29.99
71649;SHT31;70112;45.624;11.760;2024-03-23T09:58:06;34.65;29.86
71649;SHT31;70112;45.624;11.760;2024-03-23T10:00:33;34.65;30.08
71649;SHT31;70112;45.624;11.760;2024-03-23T10:03:00;34.25;29.98
71649;SHT31;70112;45.624;11.760;2024-03-23T10:05:29;33.40;30.48
71649;SHT31;70112;45.624;11.760;2024-03-23T10:10:40;31.62;32.13
71649;SHT31;70112;45.624;11.760;2024-03-23T10:13:06;30.66;32.39
71649;SHT31;70112;45.624;11.760;2024-03-23T10:15:33;29.80;33.34
71649;SHT31;70112;45.624;11.760;2024-03-23T10:21:06;28.41;35.00
71649;SHT31;70112;45.624;11.760;2024-03-23T10:23:38;27.75;35.60
71649;SHT31;70112;45.624;11.760;2024-03-23T10:26:24;27.25;36.62
71649;SHT31;70112;45.624;11.760;2024-03-23T10:29:00;26.81;37.40
71649;SHT31;70112;45.624;11.760;2024-03-23T10:31:28;26.35;38.28
71649;SHT31;70112;45.624;11.760;2024-03-23T10:33:55;25.87;38.58
71649;SHT31;70112;45.624;11.760;2024-03-23T10:36:21;25.44;38.79
71649;SHT31;70112;45.624;11.760;2024-03-23T10:38:49;25.09;39.47
71649;SHT31;70112;45.624;11.760;2024-03-23T10:41:17;24.80;39.98
71649;SHT31;70112;45.624;11.760;2024-03-23T10:43:45;24.62;41.07
71649;SHT31;70112;45.624;11.760;2024-03-23T10:46:13;24.46;41.69
71649;SHT31;70112;45.624;11.760;2024-03-23T10:48:40;24.23;42.59
71649;SHT31;70112;45.624;11.760;2024-03-23T10:51:06;24.03;42.36
71649;SHT31;70112;45.624;11.760;2024-03-23T10:53:34;23.85;42.45
71649;SHT31;70112;45.624;11.760;2024-03-23T10:56:00;23.76;43.20
71649;SHT31;70112;45.624;11.760;2024-03-23T10:58:33;23.58;43.18
71649;SHT31;70112;45.624;11.760;2024-03-23T11:01:14;23.34;44.09
71649;SHT31;70112;45.624;11.760;2024-03-23T11:03:46;23.20;44.72
71649;SHT31;70112;45.624;11.760;2024-03-23T11:06:33;23.06;44.90
71649;SHT31;70112;45.624;11.760;2024-03-23T11:14:47;22.62;45.03
71649;SHT31;70112;45.624;11.760;2024-03-23T11:17:17;22.50;45.17
71649;SHT31;70112;45.624;11.760;2024-03-23T11:19:44;22.38;45.39
71649;SHT31;70112;45.624;11.760;2024-03-23T11:22:41;22.31;46.44
71649;SHT31;70112;45.624;11.760;2024-03-23T11:25:18;22.27;47.12
71649;SHT31;70112;45.624;11.760;2024-03-23T11:27:49;22.23;47.33
71649;SHT31;70112;45.624;11.760;2024-03-23T11:32:52;22.09;46.45
71649;SHT31;70112;45.624;11.760;2024-03-23T11:35:25;21.99;46.61
71649;SHT31;70112;45.624;11.760;2024-03-23T11:40:40;21.92;47.62
71649;SHT31;70112;45.624;11.760;2024-03-23T11:43:08;21.87;47.57
71649;SHT31;70112;45.624;11.760;2024-03-23T11:45:42;21.81;48.07
71649;SHT31;70112;45.624;11.760;2024-03-23T11:48:20;21.78;47.58
71649;SHT31;70112;45.624;11.760;2024-03-23T11:50:47;21.74;46.99
71649;SHT31;70112;45.624;11.760;2024-03-23T11:58:21;21.71;47.24
71649;SHT31;70112;45.624;11.760;2024-03-23T12:00:49;21.71;47.88
71649;SHT31;70112;45.624;11.760;2024-03-23T12:03:23;21.71;47.96
71649;SHT31;70112;45.624;11.760;2024-03-23T12:05:54;21.71;48.38
71649;SHT31;70112;45.624;11.760;2024-03-23T12:11:06;21.61;48.38
71649;SHT31;70112;45.624;11.760;2024-03-23T12:13:34;21.55;48.00
71649;SHT31;70112;45.624;11.760;2024-03-23T12:18:36;21.45;48.35
71649;SHT31;70112;45.624;11.760;2024-03-23T12:21:03;21.40;48.66
71649;SHT31;70112;45.624;11.760;2024-03-23T12:23:29;21.32;48.69
71649;SHT31;70112;45.624;11.760;2024-03-23T12:25:55;21.28;49.01
71649;SHT31;70112;45.624;11.760;2024-03-23T12:28:20;21.26;49.49
71649;SHT31;70112;45.624;11.760;2024-03-23T12:30:45;21.26;48.77
71649;SHT31;70112;45.624;11.760;2024-03-23T12:33:11;21.26;49.01
71649;SHT31;70112;45.624;11.760;2024-03-23T12:35:37;21.27;48.82
71649;SHT31;70112;45.624;11.760;2024-03-23T12:38:02;21.29;48.77
71649;SHT31;70112;45.624;11.760;2024-03-23T12:40:28;21.29;48.51
71649;SHT31;70112;45.624;11.760;2024-03-23T12:42:53;21.29;47.99
71649;SHT31;70112;45.624;11.760;2024-03-23T12:45:19;21.28;48.22
71649;SHT31;70112;45.624;11.760;2024-03-23T12:47:45;21.28;49.02
71649;SHT31;70112;45.624;11.760;2024-03-23T12:50:10;21.30;48.59
71649;SHT31;70112;45.624;11.760;2024-03-23T12:52:36;21.31;48.66
71649;SHT31;70112;45.624;11.760;2024-03-23T12:55:02;21.33;48.29
71649;SHT31;70112;45.624;11.760;2024-03-23T12:57:30;21.32;48.15
71649;SHT31;70112;45.624;11.760;2024-03-23T12:59:57;21.30;47.87
71649;SHT31;70112;45.624;11.760;2024-03-23T13:02:22;21.24;47.66
71649;SHT31;70112;45.624;11.760;2024-03-23T13:04:54;21.18;47.56
71649;SHT31;70112;45.624;11.760;2024-03-23T13:07:21;21.16;48.02
71649;SHT31;70112;45.624;11.760;2024-03-23T13:09:51;21.15;48.33
71649;SHT31;70112;45.624;11.760;2024-03-23T13:12:17;21.17;48.40
71649;SHT31;70112;45.624;11.760;2024-03-23T13:14:46;21.17;47.83
71649;SHT31;70112;45.624;11.760;2024-03-23T13:17:12;21.16;47.89
71649;SHT31;70112;45.624;11.760;2024-03-23T13:19:37;21.16;48.20
71649;SHT31;70112;45.624;11.760;2024-03-23T13:22:03;21.15;48.18
71649;SHT31;70112;45.624;11.760;2024-03-23T13:24:29;21.14;47.78
71649;SHT31;70112;45.624;11.760;2024-03-23T13:26:55;21.08;48.00
71649;SHT31;70112;45.624;11.760;2024-03-23T13:29:22;20.99;48.05
71649;SHT31;70112;45.624;11.760;2024-03-23T13:31:49;20.92;48.04
71649;SHT31;70112;45.624;11.760;2024-03-23T13:34:16;20.88;48.36
71649;SHT31;70112;45.624;11.760;2024-03-23T13:36:43;20.84;48.80
71649;SHT31;70112;45.624;11.760;2024-03-23T13:39:10;20.80;49.20
71649;SHT31;70112;45.624;11.760;2024-03-23T13:41:39;20.77;49.52
71649;SHT31;70112;45.624;11.760;2024-03-23T13:44:12;20.75;49.71
71649;SHT31;70112;45.624;11.760;2024-03-23T13:46:40;20.72;50.21
71649;SHT31;70112;45.624;11.760;2024-03-23T13:49:08;20.68;49.28
71649;SHT31;70112;45.624;11.760;2024-03-23T13:51:49;20.64;49.23
71649;SHT31;70112;45.624;11.760;2024-03-23T13:54:15;20.61;49.03
71649;SHT31;70112;45.624;11.760;2024-03-23T13:56:40;20.61;49.36
71649;SHT31;70112;45.624;11.760;2024-03-23T13:59:06;20.59;50.41
71649;SHT31;70112;45.624;11.760;2024-03-23T14:01:31;20.57;50.52
71649;SHT31;70112;45.624;11.760;2024-03-23T14:03:57;20.54;50.55
71649;SHT31;70112;45.624;11.760;2024-03-23T14:06:22;20.52;50.79
71649;SHT31;70112;45.624;11.760;2024-03-23T14:08:49;20.49;50.64
71649;SHT31;70112;45.624;11.760;2024-03-23T14:11:14;20.47;50.52
71649;SHT31;70112;45.624;11.760;2024-03-23T14:13:40;20.47;50.71
71649;SHT31;70112;45.624;11.760;2024-03-23T14:16:05;20.43;50.14
71649;SHT31;70112;45.624;11.760;2024-03-23T14:18:31;20.39;50.02
71649;SHT31;70112;45.624;11.760;2024-03-23T14:20:58;20.36;49.28
71649;SHT31;70112;45.624;11.760;2024-03-23T14:23:25;20.36;49.74
71649;SHT31;70112;45.624;11.760;2024-03-23T14:25:55;20.37;50.09
71649;SHT31;70112;45.624;11.760;2024-03-23T14:28:21;20.38;50.53
71649;SHT31;70112;45.624;11.760;2024-03-23T14:30:50;20.40;50.61
71649;SHT31;70112;45.624;11.760;2024-03-23T14:33:17;20.42;49.80
71649;SHT31;70112;45.624;11.760;2024-03-23T14:35:43;20.44;49.31
71649;SHT31;70112;45.624;11.760;2024-03-23T14:38:20;20.44;49.25
71649;SHT31;70112;45.624;11.760;2024-03-23T14:40:46;20.43;49.44
71649;SHT31;70112;45.624;11.760;2024-03-23T14:43:11;20.41;49.99
71649;SHT31;70112;45.624;11.760;2024-03-23T14:45:45;20.39;49.81
71649;SHT31;70112;45.624;11.760;2024-03-23T14:48:32;20.39;50.19
71649;SHT31;70112;45.624;11.760;2024-03-23T14:50:58;20.37;50.18
71649;SHT31;70112;45.624;11.760;2024-03-23T14:53:25;20.34;49.57
71649;SHT31;70112;45.624;11.760;2024-03-23T14:55:54;20.30;49.39
71649;SHT31;70112;45.624;11.760;2024-03-23T14:58:21;20.27;49.31
71649;SHT31;70112;45.624;11.760;2024-03-23T15:00:47;20.24;49.51
71649;SHT31;70112;45.624;11.760;2024-03-23T15:03:14;20.21;49.70
71649;SHT31;70112;45.624;11.760;2024-03-23T15:05:39;20.20;49.70
71649;SHT31;70112;45.624;11.760;2024-03-23T15:08:05;20.19;49.91
71649;SHT31;70112;45.624;11.760;2024-03-23T15:10:32;20.18;50.29
71649;SHT31;70112;45.624;11.760;2024-03-23T15:12:58;20.16;50.09
71649;SHT31;70112;45.624;11.760;2024-03-23T15:15:24;20.13;50.34
71649;SHT31;70112;45.624;11.760;2024-03-23T15:17:49;20.10;50.42
71649;SHT31;70112;45.624;11.760;2024-03-23T15:20:15;20.09;50.69
71649;SHT31;70112;45.624;11.760;2024-03-23T15:22:41;20.06;50.56
71649;SHT31;70112;45.624;11.760;2024-03-23T15:25:07;20.05;51.41
71649;SHT31;70112;45.624;11.760;2024-03-23T15:27:33;20.03;51.70
71649;SHT31;70112;45.624;11.760;2024-03-23T15:29:59;20.00;51.23
71649;SHT31;70112;45.624;11.760;2024-03-23T15:32:24;19.97;51.20
71649;SHT31;70112;45.624;11.760;2024-03-23T15:34:50;19.94;51.13
71649;SHT31;70112;45.624;11.760;2024-03-23T15:37:17;19.89;50.74
71649;SHT31;70112;45.624;11.760;2024-03-23T15:39:43;19.85;50.92
71649;SHT31;70112;45.624;11.760;2024-03-23T15:42:08;19.81;50.68
71649;SHT31;70112;45.624;11.760;2024-03-23T15:44:35;19.78;50.99
71649;SHT31;70112;45.624;11.760;2024-03-23T15:47:00;19.75;51.46
71649;SHT31;70112;45.624;11.760;2024-03-23T15:49:26;19.73;51.74
71649;SHT31;70112;45.624;11.760;2024-03-23T15:51:51;19.71;51.99
71649;SHT31;70112;45.624;11.760;2024-03-23T15:54:17;19.67;51.94
71649;SHT31;70112;45.624;11.760;2024-03-23T15:56:42;19.65;51.98
71649;SHT31;70112;45.624;11.760;2024-03-23T15:59:07;19.64;52.00
71649;SHT31;70112;45.624;11.760;2024-03-23T16:01:33;19.64;52.09
71649;SHT31;70112;45.624;11.760;2024-03-23T16:04:00;19.65;52.04
71649;SHT31;70112;45.624;11.760;2024-03-23T16:06:28;19.66;52.11
71649;SHT31;70112;45.624;11.760;2024-03-23T16:08:53;19.67;52.40
71649;SHT31;70112;45.624;11.760;2024-03-23T16:11:19;19.66;52.32
71649;SHT31;70112;45.624;11.760;2024-03-23T16:13:45;19.65;52.16
71649;SHT31;70112;45.624;11.760;2024-03-23T16:16:11;19.64;52.00
71649;SHT31;70112;45.624;11.760;2024-03-23T16:18:37;19.63;51.91
71649;SHT31;70112;45.624;11.760;2024-03-23T16:21:06;19.62;52.21
71649;SHT31;70112;45.624;11.760;2024-03-23T16:23:32;19.60;52.26
71649;SHT31;70112;45.624;11.760;2024-03-23T16:26:06;19.57;52.09
71649;SHT31;70112;45.624;11.760;2024-03-23T16:28:33;19.55;52.10
71649;SHT31;70112;45.624;11.760;2024-03-23T16:31:01;19.53;52.11
71649;SHT31;70112;45.624;11.760;2024-03-23T16:33:29;19.51;52.12
71649;SHT31;70112;45.624;11.760;2024-03-23T16:36:03;19.48;51.98
71649;SHT31;70112;45.624;11.760;2024-03-23T16:38:31;19.45;51.96
71649;SHT31;70112;45.624;11.760;2024-03-23T16:41:10;19.44;52.07
71649;SHT31;70112;45.624;11.760;2024-03-23T16:43:43;19.41;52.29
71649;SHT31;70112;45.624;11.760;2024-03-23T16:46:13;19.39;52.35
71649;SHT31;70112;45.624;11.760;2024-03-23T16:48:41;19.36;52.08
71649;SHT31;70112;45.624;11.760;2024-03-23T16:51:07;19.35;52.35
71649;SHT31;70112;45.624;11.760;2024-03-23T16:53:34;19.32;52.55
71649;SHT31;70112;45.624;11.760;2024-03-23T16:56:01;19.30;52.57
71649;SHT31;70112;45.624;11.760;2024-03-23T16:58:33;19.26;52.73
71649;SHT31;70112;45.624;11.760;2024-03-23T17:03:34;19.22;52.44
71649;SHT31;70112;45.624;11.760;2024-03-23T17:08:30;19.17;52.67
71649;SHT31;70112;45.624;11.760;2024-03-23T17:11:00;19.13;52.72
71649;SHT31;70112;45.624;11.760;2024-03-23T17:13:34;19.10;52.91
71649;SHT31;70112;45.624;11.760;2024-03-23T17:16:00;19.06;52.98
71649;SHT31;70112;45.624;11.760;2024-03-23T17:18:25;19.02;52.84
71649;SHT31;70112;45.624;11.760;2024-03-23T17:20:51;18.98;53.00
71649;SHT31;70112;45.624;11.760;2024-03-23T17:23:30;18.94;53.25
71649;SHT31;70112;45.624;11.760;2024-03-23T17:25:56;18.89;53.31
71649;SHT31;70112;45.624;11.760;2024-03-23T17:28:22;18.87;53.65
71649;SHT31;70112;45.624;11.760;2024-03-23T17:30:48;18.80;53.53
71649;SHT31;70112;45.624;11.760;2024-03-23T17:33:14;18.75;53.70
71649;SHT31;70112;45.624;11.760;2024-03-23T17:35:40;18.72;53.83
71649;SHT31;70112;45.624;11.760;2024-03-23T17:38:05;18.69;54.01
71649;SHT31;70112;45.624;11.760;2024-03-23T17:40:32;18.65;54.07
71649;SHT31;70112;45.624;11.760;2024-03-23T17:42:57;18.62;54.38
71649;SHT31;70112;45.624;11.760;2024-03-23T17:45:23;18.59;54.41
71649;SHT31;70112;45.624;11.760;2024-03-23T17:47:49;18.56;54.27
71649;SHT31;70112;45.624;11.760;2024-03-23T17:50:17;18.54;54.63
71649;SHT31;70112;45.624;11.760;2024-03-23T17:52:43;18.51;54.87
71649;SHT31;70112;45.624;11.760;2024-03-23T17:55:10;18.47;54.85
71649;SHT31;70112;45.624;11.760;2024-03-23T17:57:36;18.42;55.12
71649;SHT31;70112;45.624;11.760;2024-03-23T18:00:02;18.38;55.33
71649;SHT31;70112;45.624;11.760;2024-03-23T18:02:31;18.35;55.36
71649;SHT31;70112;45.624;11.760;2024-03-23T18:04:57;18.31;55.42
71649;SHT31;70112;45.624;11.760;2024-03-23T18:07:24;18.25;55.45
71649;SHT31;70112;45.624;11.760;2024-03-23T18:09:50;18.20;55.61
71649;SHT31;70112;45.624;11.760;2024-03-23T18:12:16;18.16;55.74
71649;SHT31;70112;45.624;11.760;2024-03-23T18:14:42;18.13;55.80
71649;SHT31;70112;45.624;11.760;2024-03-23T18:17:08;18.11;55.88
71649;SHT31;70112;45.624;11.760;2024-03-23T18:19:33;18.08;56.07
71649;SHT31;70112;45.624;11.760;2024-03-23T18:21:59;18.05;56.19
71649;SHT31;70112;45.624;11.760;2024-03-23T18:24:24;18.02;56.26
71649;SHT31;70112;45.624;11.760;2024-03-23T18:26:49;17.99;56.44
71649;SHT31;70112;45.624;11.760;2024-03-23T18:29:15;17.95;56.67
71649;SHT31;70112;45.624;11.760;2024-03-23T18:31:41;17.92;56.85
71649;SHT31;70112;45.624;11.760;2024-03-23T18:34:08;17.89;56.89
71649;SHT31;70112;45.624;11.760;2024-03-23T18:36:33;17.86;56.99
71649;SHT31;70112;45.624;11.760;2024-03-23T18:38:59;17.81;57.38
71649;SHT31;70112;45.624;11.760;2024-03-23T18:41:27;17.78;57.56
71649;SHT31;70112;45.624;11.760;2024-03-23T18:43:55;17.75;57.92
71649;SHT31;70112;45.624;11.760;2024-03-23T18:46:21;17.71;57.94
71649;SHT31;70112;45.624;11.760;2024-03-23T18:48:47;17.68;57.99
71649;SHT31;70112;45.624;11.760;2024-03-23T18:51:12;17.66;58.11
71649;SHT31;70112;45.624;11.760;2024-03-23T18:53:37;17.61;58.27
71649;SHT31;70112;45.624;11.760;2024-03-23T18:56:03;17.55;58.40
71649;SHT31;70112;45.624;11.760;2024-03-23T18:58:29;17.52;58.49
71649;SHT31;70112;45.624;11.760;2024-03-23T19:00:59;17.49;58.51
71649;SHT31;70112;45.624;11.760;2024-03-23T19:03:28;17.43;58.85
71649;SHT31;70112;45.624;11.760;2024-03-23T19:05:58;17.41;58.95
71649;SHT31;70112;45.624;11.760;2024-03-23T19:08:25;17.36;59.24
71649;SHT31;70112;45.624;11.760;2024-03-23T19:10:54;17.30;59.14
71649;SHT31;70112;45.624;11.760;2024-03-23T19:13:24;17.28;58.94
71649;SHT31;70112;45.624;11.760;2024-03-23T19:15:51;17.27;58.88
71649;SHT31;70112;45.624;11.760;2024-03-23T19:18:16;17.25;58.88
71649;SHT31;70112;45.624;11.760;2024-03-23T19:20:43;17.21;58.88
71649;SHT31;70112;45.624;11.760;2024-03-23T19:23:15;17.17;58.97
71649;SHT31;70112;45.624;11.760;2024-03-23T19:25:41;17.13;59.10
71649;SHT31;70112;45.624;11.760;2024-03-23T19:28:06;17.09;59.25
71649;SHT31;70112;45.624;11.760;2024-03-23T19:30:31;17.06;59.38
71649;SHT31;70112;45.624;11.760;2024-03-23T19:32:57;17.04;59.52
71649;SHT31;70112;45.624;11.760;2024-03-23T19:35:25;17.01;59.66
71649;SHT31;70112;45.624;11.760;2024-03-23T19:37:51;16.98;59.79
71649;SHT31;70112;45.624;11.760;2024-03-23T19:40:17;16.97;59.88
71649;SHT31;70112;45.624;11.760;2024-03-23T19:42:43;16.93;59.91
71649;SHT31;70112;45.624;11.760;2024-03-23T19:45:09;16.91;59.96
71649;SHT31;70112;45.624;11.760;2024-03-23T19:47:37;16.89;60.00
71649;SHT31;70112;45.624;11.760;2024-03-23T19:50:06;16.88;60.02
71649;SHT31;70112;45.624;11.760;2024-03-23T19:52:35;16.86;60.17
71649;SHT31;70112;45.624;11.760;2024-03-23T19:55:02;16.84;60.17
71649;SHT31;70112;45.624;11.760;2024-03-23T19:57:28;16.82;60.24
71649;SHT31;70112;45.624;11.760;2024-03-23T19:59:54;16.80;60.34
71649;SHT31;70112;45.624;11.760;2024-03-23T20:02:19;16.75;60.53
71649;SHT31;70112;45.624;11.760;2024-03-23T20:04:45;16.70;60.77
71649;SHT31;70112;45.624;11.760;2024-03-23T20:07:10;16.65;60.99
71649;SHT31;70112;45.624;11.760;2024-03-23T20:09:37;16.59;61.00
71649;SHT31;70112;45.624;11.760;2024-03-23T20:12:03;16.53;61.12
71649;SHT31;70112;45.624;11.760;2024-03-23T20:14:29;16.50;61.33
71649;SHT31;70112;45.624;11.760;2024-03-23T20:16:54;16.48;61.47
71649;SHT31;70112;45.624;11.760;2024-03-23T20:19:20;16.47;61.65
71649;SHT31;70112;45.624;11.760;2024-03-23T20:21:45;16.44;61.76
71649;SHT31;70112;45.624;11.760;2024-03-23T20:24:11;16.40;61.97
71649;SHT31;70112;45.624;11.760;2024-03-23T20:26:36;16.35;62.01
71649;SHT31;70112;45.624;11.760;2024-03-23T20:29:02;16.29;62.14
71649;SHT31;70112;45.624;11.760;2024-03-23T20:31:27;16.23;62.28
71649;SHT31;70112;45.624;11.760;2024-03-23T20:33:53;16.18;62.38
71649;SHT31;70112;45.624;11.760;2024-03-23T20:36:19;16.14;62.48
71649;SHT31;70112;45.624;11.760;2024-03-23T20:38:45;16.12;62.50
71649;SHT31;70112;45.624;11.760;2024-03-23T20:41:10;16.11;62.67
71649;SHT31;70112;45.624;11.760;2024-03-23T20:43:36;16.10;62.72
71649;SHT31;70112;45.624;11.760;2024-03-23T20:46:09;16.11;62.83
71649;SHT31;70112;45.624;11.760;2024-03-23T20:48:36;16.10;62.97
71649;SHT31;70112;45.624;11.760;2024-03-23T20:51:05;16.09;63.09
71649;SHT31;70112;45.624;11.760;2024-03-23T20:53:35;16.07;63.22
71649;SHT31;70112;45.624;11.760;2024-03-23T20:56:02;16.05;63.31
71649;SHT31;70112;45.624;11.760;2024-03-23T20:58:29;16.03;63.39
71649;SHT31;70112;45.624;11.760;2024-03-23T21:01:02;15.99;63.49
71649;SHT31;70112;45.624;11.760;2024-03-23T21:03:30;15.96;63.64
71649;SHT31;70112;45.624;11.760;2024-03-23T21:05:57;15.92;63.67
71649;SHT31;70112;45.624;11.760;2024-03-23T21:08:22;15.87;63.69
71649;SHT31;70112;45.624;11.760;2024-03-23T21:10:49;15.84;63.81
71649;SHT31;70112;45.624;11.760;2024-03-23T21:13:15;15.81;63.88
71649;SHT31;70112;45.624;11.760;2024-03-23T21:15:53;15.81;63.89